createdAt,value
2018-11-06T00:01:58.853Z,99072.48
2018-11-06T00:05:08.609Z,99081.13
2018-11-06T00:08:13.299Z,99083.46
2018-11-06T00:11:17.863Z,99082.05
2018-11-06T00:14:22.393Z,99076.17
2018-11-06T00:17:26.945Z,99072.70
2018-11-06T00:20:31.453Z,99074.95
2018-11-06T00:23:36.032Z,99079.39
2018-11-06T00:26:40.615Z,99074.85
2018-11-06T00:29:45.090Z,99071.25
2018-11-06T00:32:50.319Z,99075.50
2018-11-06T00:35:54.873Z,99076.92
2018-11-06T00:38:59.372Z,99072.28
2018-11-06T00:42:04.067Z,99081.15
2018-11-06T00:45:16.264Z,99081.89
2018-11-06T00:48:20.947Z,99083.63
2018-11-06T00:51:26.483Z,99078.91
2018-11-06T00:54:31.201Z,99083.84
2018-11-06T00:57:36.256Z,99082.41
2018-11-06T01:00:40.835Z,99087.65
2018-11-06T01:03:54.346Z,99091.45
2018-11-06T01:06:58.884Z,99096.41
2018-11-06T01:10:03.417Z,99094.67
2018-11-06T01:13:08.029Z,99087.98
2018-11-06T01:16:12.737Z,99089.00
2018-11-06T01:19:17.271Z,99095.89
2018-11-06T01:22:21.989Z,99097.96
2018-11-06T01:25:26.859Z,99097.88
2018-11-06T01:28:31.604Z,99100.74
2018-11-06T01:31:36.324Z,99107.13
2018-11-06T01:34:40.812Z,99102.17
2018-11-06T01:37:46.311Z,99101.37
2018-11-06T01:40:51.055Z,99097.88
2018-11-06T01:43:55.851Z,99095.40
2018-11-06T01:47:00.304Z,99098.97
2018-11-06T01:50:05.124Z,99095.88
2018-11-06T01:53:09.619Z,99081.79
2018-11-06T01:56:14.207Z,99079.94
2018-11-06T01:59:18.869Z,99071.80
2018-11-06T02:02:23.413Z,99071.61
2018-11-06T02:05:27.999Z,99070.47
2018-11-06T02:08:32.614Z,99069.22
2018-11-06T02:11:37.167Z,99073.02
2018-11-06T02:14:41.892Z,99076.84
2018-11-06T02:17:46.790Z,99091.42
2018-11-06T02:20:51.349Z,99086.62
2018-11-06T02:23:56.002Z,99082.90
2018-11-06T02:27:00.563Z,99089.08
2018-11-06T02:30:05.988Z,99077.55
2018-11-06T02:33:10.742Z,99076.43
2018-11-06T02:36:15.347Z,99080.44
2018-11-06T02:39:19.930Z,99084.88
2018-11-06T02:42:24.507Z,99087.26
2018-11-06T02:45:29.092Z,99080.14
2018-11-06T02:48:33.680Z,99086.07
2018-11-06T02:51:38.188Z,99084.98
2018-11-06T02:54:42.836Z,99094.09
2018-11-06T02:57:47.530Z,99099.70
2018-11-06T03:00:52.854Z,99089.61
2018-11-06T03:03:57.472Z,99094.15
2018-11-06T03:07:02.164Z,99087.95
2018-11-06T03:10:08.022Z,99085.49
2018-11-06T03:13:13.703Z,99086.53
2018-11-06T03:16:18.201Z,99098.83
2018-11-06T03:19:22.828Z,99090.02
2018-11-06T03:22:27.430Z,99097.32
2018-11-06T03:25:31.975Z,99100.02
2018-11-06T03:28:36.590Z,99106.91
2018-11-06T03:31:41.094Z,99102.16
2018-11-06T03:34:45.756Z,99105.97
2018-11-06T03:37:50.313Z,99094.25
2018-11-06T03:40:54.812Z,99097.53
2018-11-06T03:43:59.586Z,99091.36
2018-11-06T03:47:04.180Z,99091.56
2018-11-06T03:50:11.018Z,99095.27
2018-11-06T03:53:15.566Z,99103.14
2018-11-06T03:56:20.156Z,99110.70
2018-11-06T03:59:25.230Z,99113.27
2018-11-06T04:02:29.909Z,99110.53
2018-11-06T04:05:34.626Z,99112.45
2018-11-06T04:08:39.167Z,99112.61
2018-11-06T04:11:45.276Z,99111.77
2018-11-06T04:14:50.056Z,99109.67
2018-11-06T04:17:54.656Z,99117.03
2018-11-06T04:20:59.179Z,99117.74
2018-11-06T04:24:04.225Z,99116.00
2018-11-06T04:27:08.704Z,99114.88
2018-11-06T04:30:14.681Z,99121.31
2018-11-06T04:33:19.267Z,99116.52
2018-11-06T04:36:23.791Z,99123.47
2018-11-06T04:39:28.421Z,99117.93
2018-11-06T04:42:33.013Z,99122.24
2018-11-06T04:45:37.645Z,99122.87
2018-11-06T04:48:42.719Z,99125.47
2018-11-06T04:51:47.262Z,99123.09
2018-11-06T04:54:51.775Z,99122.46
2018-11-06T04:57:56.403Z,99117.63
2018-11-06T05:01:01.098Z,99110.95
2018-11-06T05:04:05.900Z,99114.92
2018-11-06T05:07:10.413Z,99117.30
2018-11-06T05:10:15.615Z,99110.64
2018-11-06T05:13:20.338Z,99116.30
2018-11-06T05:16:24.894Z,99107.34
2018-11-06T05:19:29.503Z,99106.38
2018-11-06T05:22:34.050Z,99118.47
2018-11-06T05:25:38.638Z,99122.41
2018-11-06T05:28:43.803Z,99119.63
2018-11-06T05:31:48.335Z,99112.42
2018-11-06T05:34:53.012Z,99114.17
2018-11-06T05:37:57.382Z,99113.12
2018-11-06T05:41:05.061Z,99114.06
2018-11-06T05:44:09.619Z,99121.38
2018-11-06T05:47:14.168Z,99119.41
2018-11-06T05:50:18.735Z,99128.77
2018-11-06T05:53:23.478Z,99130.03
2018-11-06T05:56:28.142Z,99130.33
2018-11-06T05:59:32.740Z,99140.28
2018-11-06T06:02:37.307Z,99149.35
2018-11-06T06:05:42.176Z,99157.77
2018-11-06T06:08:46.720Z,99158.19
2018-11-06T06:11:51.249Z,99151.31
2018-11-06T06:14:55.745Z,99148.12
2018-11-06T06:18:00.403Z,99142.48
2018-11-06T06:21:05.063Z,99151.66
2018-11-06T06:24:09.600Z,99156.03
2018-11-06T06:27:15.147Z,99157.18
2018-11-06T06:30:19.760Z,99151.20
2018-11-06T06:33:24.234Z,99153.58
2018-11-06T06:36:28.778Z,99164.63
2018-11-06T06:39:33.291Z,99162.66
2018-11-06T06:42:37.828Z,99160.80
2018-11-06T06:45:42.514Z,99166.89
2018-11-06T06:48:47.084Z,99171.95
2018-11-06T06:51:51.681Z,99172.24
2018-11-06T06:54:56.145Z,99171.54
2018-11-06T06:58:00.693Z,99178.13
2018-11-06T07:01:05.565Z,99178.11
2018-11-06T07:04:10.166Z,99172.99
2018-11-06T07:07:14.664Z,99179.17
2018-11-06T07:10:21.710Z,99183.69
2018-11-06T07:13:26.215Z,99184.28
2018-11-06T07:16:30.868Z,99187.96
2018-11-06T07:19:35.467Z,99184.58
2018-11-06T07:22:40.150Z,99186.33
2018-11-06T07:25:44.773Z,99178.39
2018-11-06T07:28:49.382Z,99181.26
2018-11-06T07:31:54.001Z,99182.22
2018-11-06T07:34:58.728Z,99171.69
2018-11-06T07:38:03.184Z,99173.14
2018-11-06T07:41:07.914Z,99173.55
2018-11-06T07:44:12.598Z,99171.49
2018-11-06T07:47:17.175Z,99168.70
2018-11-06T07:50:21.817Z,99179.25
2018-11-06T07:53:26.462Z,99177.36
2018-11-06T07:56:30.978Z,99179.73
2018-11-06T07:59:35.521Z,99174.28
2018-11-06T08:02:40.044Z,99177.34
2018-11-06T08:05:44.634Z,99178.19
2018-11-06T08:08:49.200Z,99174.40
2018-11-06T08:11:53.923Z,99165.02
2018-11-06T08:14:58.548Z,99161.52
2018-11-06T08:18:03.037Z,99167.88
2018-11-06T08:21:07.627Z,99155.71
2018-11-06T08:24:12.265Z,99162.06
2018-11-06T08:27:16.775Z,99162.88
2018-11-06T08:30:21.427Z,99163.11
2018-11-06T08:33:25.862Z,99153.30
2018-11-06T08:36:30.466Z,99144.23
2018-11-06T08:39:35.058Z,99145.61
2018-11-06T08:42:39.651Z,99143.47
2018-11-06T08:45:44.211Z,99144.17
2018-11-06T08:48:48.835Z,99133.65
2018-11-06T08:51:53.407Z,99133.65
2018-11-06T08:54:57.972Z,99134.06
2018-11-06T08:58:02.476Z,99131.48
2018-11-06T09:01:07.160Z,99134.50
2018-11-06T09:04:11.745Z,99116.80
2018-11-06T09:07:16.291Z,99118.69
2018-11-06T09:10:20.903Z,99123.53
2018-11-06T09:13:25.549Z,99128.94
2018-11-06T09:16:30.151Z,99126.51
2018-11-06T09:19:35.004Z,99124.45
2018-11-06T09:22:39.523Z,99118.97
2018-11-06T09:25:44.094Z,99126.76
2018-11-06T09:28:48.738Z,99111.07
2018-11-06T09:31:53.220Z,99121.88
2018-11-06T09:34:57.731Z,99117.09
2018-11-06T09:38:02.322Z,99118.39
2018-11-06T09:41:07.088Z,99116.98
2018-11-06T09:44:11.688Z,99114.30
2018-11-06T09:47:16.305Z,99118.84
2018-11-06T09:50:20.916Z,99112.50
2018-11-06T09:53:25.505Z,99104.66
2018-11-06T09:56:30.167Z,99094.67
2018-11-06T09:59:34.738Z,99096.02
2018-11-06T10:02:39.281Z,99091.75
2018-11-06T10:05:43.835Z,99080.50
2018-11-06T10:08:48.462Z,99083.05
2018-11-06T10:11:53.044Z,99079.95
2018-11-06T10:14:57.877Z,99079.03
2018-11-06T10:18:02.464Z,99086.20
2018-11-06T10:21:07.687Z,99081.95
2018-11-06T10:24:12.426Z,99078.02
2018-11-06T10:27:16.952Z,99079.56
2018-11-06T10:30:21.530Z,99073.95
2018-11-06T10:33:26.152Z,99070.23
2018-11-06T10:36:30.712Z,99054.97
2018-11-06T10:39:35.270Z,99051.02
2018-11-06T10:42:39.871Z,99042.08
2018-11-06T10:45:44.440Z,99045.80
2018-11-06T10:48:49.205Z,99046.00
2018-11-06T10:51:54.183Z,99041.84
2018-11-06T10:54:58.676Z,99026.75
2018-11-06T10:58:03.444Z,99024.50
2018-11-06T11:01:13.085Z,99011.30
2018-11-06T11:04:20.382Z,99011.41
2018-11-06T11:07:24.879Z,99013.21
2018-11-06T11:10:29.395Z,99005.14
2018-11-06T11:13:33.914Z,99005.91
2018-11-06T11:16:38.464Z,99008.34
2018-11-06T11:19:42.983Z,99006.95
2018-11-06T11:22:47.478Z,99005.70
2018-11-06T11:25:52.027Z,98995.53
2018-11-06T11:28:56.558Z,98994.90
2018-11-06T11:32:01.152Z,98991.38
2018-11-06T11:35:06.186Z,98990.97
2018-11-06T11:38:10.803Z,98988.45
2018-11-06T11:41:15.374Z,98977.38
2018-11-06T11:44:20.009Z,98970.04
2018-11-06T11:47:24.640Z,98961.98
2018-11-06T11:50:29.191Z,98966.91
2018-11-06T11:53:33.742Z,98959.47
2018-11-06T11:56:38.328Z,98961.95
2018-11-06T11:59:42.884Z,98958.92
2018-11-06T12:02:47.580Z,98956.87
2018-11-06T12:05:52.147Z,98948.41
2018-11-06T12:08:56.672Z,98946.03
2018-11-06T12:12:01.179Z,98942.76
2018-11-06T12:15:08.205Z,98941.15
2018-11-06T12:18:14.601Z,98931.12
2018-11-06T12:21:19.218Z,98930.31
2018-11-06T12:24:23.870Z,98931.05
2018-11-06T12:27:28.381Z,98931.09
2018-11-06T12:30:32.914Z,98919.19
2018-11-06T12:33:37.474Z,98913.00
2018-11-06T12:36:42.238Z,98910.58
2018-11-06T12:39:46.867Z,98908.92
2018-11-06T12:42:51.521Z,98900.79
2018-11-06T12:45:56.077Z,98895.59
2018-11-06T12:49:00.839Z,98891.80
2018-11-06T12:52:05.468Z,98882.84
2018-11-06T12:55:12.332Z,98886.34
2018-11-06T12:58:16.906Z,98892.03
2018-11-06T13:01:21.523Z,98895.84
2018-11-06T13:04:26.176Z,98885.78
2018-11-06T13:07:30.733Z,98888.81
2018-11-06T13:10:35.249Z,98887.73
2018-11-06T13:13:39.803Z,98888.79
2018-11-06T13:16:44.675Z,98885.55
2018-11-06T13:19:49.275Z,98881.77
2018-11-06T13:22:53.802Z,98879.06
2018-11-06T13:25:58.712Z,98882.30
2018-11-06T13:29:03.179Z,98880.11
2018-11-06T13:32:07.887Z,98881.98
2018-11-06T13:35:12.463Z,98874.13
2018-11-06T13:38:17.032Z,98871.36
2018-11-06T13:41:21.923Z,98871.14
2018-11-06T13:44:26.802Z,98869.73
2018-11-06T13:47:31.123Z,98863.47
2018-11-06T13:50:35.717Z,98860.78
2018-11-06T13:53:40.266Z,98859.41
2018-11-06T13:56:44.782Z,98860.48
2018-11-06T13:59:49.355Z,98853.16
2018-11-06T14:02:53.858Z,98853.14
2018-11-06T14:05:58.349Z,98852.89
2018-11-06T14:09:02.989Z,98855.27
2018-11-06T14:12:07.716Z,98869.36
2018-11-06T14:15:12.421Z,98857.47
2018-11-06T14:18:17.019Z,98858.45
2018-11-06T14:21:21.637Z,98862.08
2018-11-06T14:24:26.151Z,98864.06
2018-11-06T14:27:30.990Z,98861.86
2018-11-06T14:30:35.459Z,98861.38
2018-11-06T14:33:40.037Z,98860.81
2018-11-06T14:36:44.555Z,98867.30
2018-11-06T14:39:49.182Z,98867.70
2018-11-06T14:42:53.803Z,98862.17
2018-11-06T14:45:58.344Z,98867.04
2018-11-06T14:49:03.176Z,98875.52
2018-11-06T14:52:07.859Z,98872.97
2018-11-06T14:55:14.021Z,98872.31
2018-11-06T14:58:18.680Z,98874.08
2018-11-06T15:01:23.347Z,98876.02
2018-11-06T15:04:27.883Z,98870.98
2018-11-06T15:07:32.561Z,98873.20
2018-11-06T15:10:37.177Z,98878.48
2018-11-06T15:13:41.727Z,98874.35
2018-11-06T15:16:46.374Z,98863.60
2018-11-06T15:19:51.090Z,98865.55
2018-11-06T15:22:55.630Z,98859.65
2018-11-06T15:26:00.219Z,98866.98
2018-11-06T15:29:05.148Z,98861.66
2018-11-06T15:32:09.818Z,98868.23
2018-11-06T15:35:15.650Z,98866.43
2018-11-06T15:38:20.285Z,98868.38
2018-11-06T15:41:24.941Z,98877.45
2018-11-06T15:44:29.468Z,98868.84
2018-11-06T15:47:34.092Z,98874.33
2018-11-06T15:50:38.717Z,98881.24
2018-11-06T15:53:43.222Z,98881.52
2018-11-06T15:56:47.791Z,98877.48
2018-11-06T15:59:52.563Z,98887.14
2018-11-06T16:02:57.240Z,98888.70
2018-11-06T16:06:01.883Z,98891.23
2018-11-06T16:09:07.976Z,98896.95
2018-11-06T16:12:12.748Z,98895.27
2018-11-06T16:15:17.577Z,98898.55
2018-11-06T16:18:22.132Z,98899.91
2018-11-06T16:21:26.756Z,98901.38
2018-11-06T16:24:31.465Z,98896.69
2018-11-06T16:27:36.161Z,98894.22
2018-11-06T16:30:40.881Z,98893.28
2018-11-06T16:33:45.522Z,98891.88
2018-11-06T16:36:50.123Z,98895.75
2018-11-06T16:39:54.705Z,98905.58
2018-11-06T16:42:59.463Z,98902.52
2018-11-06T16:46:04.042Z,98899.95
2018-11-06T16:49:08.743Z,98913.05
2018-11-06T16:52:13.474Z,98902.99
2018-11-06T16:55:19.038Z,98903.39
2018-11-06T16:58:23.720Z,98907.25
2018-11-06T17:01:28.515Z,98903.55
2018-11-06T17:04:33.077Z,98908.79
2018-11-06T17:07:37.749Z,98912.58
2018-11-06T17:10:42.358Z,98918.28
2018-11-06T17:13:47.069Z,98916.30
2018-11-06T17:16:51.626Z,98920.05
2018-11-06T17:19:56.489Z,98926.77
2018-11-06T17:23:01.176Z,98933.19
2018-11-06T17:26:06.001Z,98929.69
2018-11-06T17:29:10.912Z,98932.77
2018-11-06T17:32:15.609Z,98942.16
2018-11-06T17:35:21.018Z,98935.23
2018-11-06T17:38:25.686Z,98937.98
2018-11-06T17:41:30.339Z,98940.22
2018-11-06T17:44:34.952Z,98934.28
2018-11-06T17:47:39.940Z,98931.06
2018-11-06T17:50:44.544Z,98931.88
2018-11-06T17:53:49.375Z,98935.00
2018-11-06T17:56:54.022Z,98932.55
2018-11-06T17:59:58.978Z,98939.95
2018-11-06T18:03:03.669Z,98939.16
2018-11-06T18:06:08.351Z,98944.50
2018-11-06T18:09:13.770Z,98950.03
2018-11-06T18:12:18.604Z,98953.33
2018-11-06T18:15:23.318Z,98958.98
2018-11-06T18:18:28.088Z,98974.73
2018-11-06T18:21:32.814Z,98984.05
2018-11-06T18:24:37.528Z,98983.56
2018-11-06T18:27:42.184Z,98986.40
2018-11-06T18:30:46.955Z,98983.55
2018-11-06T18:33:51.765Z,98991.43
2018-11-06T18:36:56.534Z,98988.77
2018-11-06T18:40:01.187Z,99005.81
2018-11-06T18:43:06.067Z,98999.55
2018-11-06T18:46:10.908Z,99001.59
2018-11-06T18:49:15.881Z,99006.27
2018-11-06T18:52:20.897Z,99004.38
2018-11-06T18:55:26.007Z,98997.09
2018-11-06T18:58:30.883Z,98991.97
2018-11-06T19:01:35.630Z,98997.42
2018-11-06T19:04:40.248Z,99001.80
2018-11-06T19:07:51.529Z,99015.45
2018-11-06T19:10:56.311Z,99016.46
2018-11-06T19:14:01.056Z,99010.72
2018-11-06T19:17:06.573Z,99013.40
2018-11-06T19:20:12.458Z,99020.09
2018-11-06T19:23:17.151Z,99028.50
2018-11-06T19:26:22.044Z,99027.70
2018-11-06T19:29:26.865Z,99028.79
2018-11-06T19:32:31.569Z,99038.55
2018-11-06T19:35:36.450Z,99041.53
2018-11-06T19:38:41.222Z,99045.56
2018-11-06T19:41:45.984Z,99049.53
2018-11-06T19:44:51.085Z,99061.47
2018-11-06T19:47:55.938Z,99062.19
2018-11-06T19:51:00.988Z,99055.28
2018-11-06T19:54:05.839Z,99056.95
2018-11-06T19:57:10.500Z,99058.95
2018-11-06T20:00:19.036Z,99061.64
2018-11-06T20:03:23.857Z,99063.52
2018-11-06T20:06:28.863Z,99074.91
2018-11-06T20:09:33.615Z,99082.48
2018-11-06T20:12:38.448Z,99084.34
2018-11-06T20:15:43.296Z,99081.38
2018-11-06T20:18:47.944Z,99091.47
2018-11-06T20:21:52.606Z,99095.42
2018-11-06T20:24:57.546Z,99100.98
2018-11-06T20:28:02.428Z,99104.41
2018-11-06T20:31:07.400Z,99108.60
2018-11-06T20:34:12.269Z,99099.19
2018-11-06T20:37:17.309Z,99103.11
2018-11-06T20:40:24.212Z,99115.03
2018-11-06T20:43:28.983Z,99124.52
2018-11-06T20:46:34.163Z,99128.95
2018-11-06T20:49:38.954Z,99125.37
2018-11-06T20:52:43.915Z,99128.53
2018-11-06T20:55:49.060Z,99126.48
2018-11-06T20:58:53.747Z,99132.88
2018-11-06T21:01:58.531Z,99128.74
2018-11-06T21:05:03.444Z,99131.54
2018-11-06T21:08:08.119Z,99122.27
2018-11-06T21:11:12.900Z,99131.54
2018-11-06T21:14:17.659Z,99134.31
2018-11-06T21:17:22.324Z,99133.72
2018-11-06T21:20:27.101Z,99127.31
2018-11-06T21:23:31.910Z,99125.86
2018-11-06T21:26:36.804Z,99126.89
2018-11-06T21:29:41.285Z,99127.52
2018-11-06T21:32:50.473Z,99126.89
2018-11-06T21:35:55.166Z,99126.89
2018-11-06T21:39:00.146Z,99130.28
2018-11-06T21:42:04.812Z,99124.93
2018-11-06T21:45:11.166Z,99129.48
2018-11-06T21:48:16.608Z,99123.50
2018-11-06T21:51:21.291Z,99128.97
2018-11-06T21:54:25.996Z,99129.89
2018-11-06T21:57:30.688Z,99136.64
2018-11-06T22:00:35.385Z,99147.05
2018-11-06T22:03:40.063Z,99143.94
2018-11-06T22:06:44.809Z,99147.40
2018-11-06T22:09:49.519Z,99161.47
2018-11-06T22:12:54.368Z,99160.14
2018-11-06T22:15:59.104Z,99161.77
2018-11-06T22:19:04.121Z,99158.09
2018-11-06T22:22:08.759Z,99163.95
2018-11-06T22:25:13.574Z,99162.32
2018-11-06T22:28:18.202Z,99167.06
2018-11-06T22:31:22.852Z,99160.07
2018-11-06T22:34:27.452Z,99161.42
2018-11-06T22:37:32.180Z,99157.70
2018-11-06T22:40:36.712Z,99146.67
2018-11-06T22:43:41.237Z,99154.19
2018-11-06T22:46:45.894Z,99165.11
2018-11-06T22:49:50.592Z,99167.28
2018-11-06T22:52:55.114Z,99171.11
2018-11-06T22:55:59.918Z,99176.46
2018-11-06T22:59:04.783Z,99172.22
2018-11-06T23:02:09.538Z,99177.58
2018-11-06T23:05:14.666Z,99178.91
2018-11-06T23:08:27.058Z,99175.31
2018-11-06T23:11:31.841Z,99169.23
2018-11-06T23:14:36.536Z,99170.58
2018-11-06T23:17:41.093Z,99181.52
2018-11-06T23:20:45.887Z,99187.08
2018-11-06T23:23:50.558Z,99181.08
2018-11-06T23:26:55.190Z,99187.90
2018-11-06T23:29:59.930Z,99176.88
2018-11-06T23:33:04.969Z,99173.98
2018-11-06T23:36:09.516Z,99164.31
2018-11-06T23:39:14.273Z,99178.73
2018-11-06T23:42:19.001Z,99174.09
2018-11-06T23:45:23.519Z,99167.50
2018-11-06T23:48:28.114Z,99168.51
2018-11-06T23:51:32.676Z,99174.91
2018-11-06T23:54:37.215Z,99191.50
2018-11-06T23:57:41.887Z,99209.73
